LFBZ/BIQ METAR and TAF weather

Enter ICAO airport designator
Station Type Date Time Source
LFBZ METAR 2019/09/20 20:30 UTC NOAA

LFBZ 202030Z AUTO 15004KT 120V190 CAVOK 25/15 Q1012 TEMPO 18020G30KT BKN060TCU


Station Type Date Time Source
LFBZ Decoded METAR 2019/09/20 20:30 UTC NOAA

Biarritz, France (LFBZ) 43-28N 001-32W 71M
Sep 20, 2019 - 04:30 PM EDT / 2019.09.20 2030 UTC
Wind: from the SSE (150 degrees) at 5 MPH (4 KT) (direction variable):0
Visibility: greater than 7 mile(s):0
Weather: Towering cumulus clouds observed
Temperature: 77 F (25 C)
Dew Point: 59 F (15 C)
Relative Humidity: 53%
Pressure (altimeter): 29.88 in. Hg (1012 hPa)
ob: LFBZ 202030Z AUTO 15004KT 120V190 CAVOK 25/15 Q1012 TEMPO 18020G30KT BKN060TCU
cycle: 20

Station Type Date Time Source
LFBZ TAF 2019/09/20 18:21 UTC NOAA

TAF LFBZ 201700Z 2018/2118 16010KT CAVOK
TEMPO 2018/2024 18020G30KT -SHRA BKN060TCU PROB30
TEMPO 2018/2021 TSRA BKN050CB
TEMPO 2100/2109 -SHRA BKN060TCU

Example: see airport list